createdAt,value
2022-11-20T00:00:01.311Z,8.40
2022-11-20T00:01:05.391Z,10.83
2022-11-20T00:02:01.278Z,10.13
2022-11-20T00:03:01.212Z,14.10
2022-11-20T00:04:01.284Z,10.53
2022-11-20T00:05:00.954Z,11.43
2022-11-20T00:06:01.834Z,11.93
2022-11-20T00:07:01.252Z,11.33
2022-11-20T00:08:01.495Z,9.80
2022-11-20T00:09:01.497Z,12.60
2022-11-20T00:10:01.262Z,9.37
2022-11-20T00:11:04.218Z,12.00
2022-11-20T00:12:01.224Z,10.67
2022-11-20T00:13:00.930Z,11.90
2022-11-20T00:14:01.605Z,12.27
2022-11-20T00:15:01.266Z,12.47
2022-11-20T00:16:03.399Z,10.83
2022-11-20T00:17:00.943Z,10.70
2022-11-20T00:18:00.915Z,9.73
2022-11-20T00:19:01.974Z,10.37
2022-11-20T00:20:00.928Z,10.10
2022-11-20T00:21:02.844Z,10.93
2022-11-20T00:22:01.220Z,12.80
2022-11-20T00:23:00.904Z,11.40
2022-11-20T00:24:00.964Z,11.67
2022-11-20T00:25:01.230Z,11.63
2022-11-20T00:26:03.724Z,12.03
2022-11-20T00:27:00.918Z,13.07
2022-11-20T00:28:01.237Z,10.30
2022-11-20T00:29:01.968Z,12.07
2022-11-20T00:30:01.448Z,10.70
2022-11-20T00:31:02.807Z,12.27
2022-11-20T00:32:00.920Z,13.30
2022-11-20T00:33:00.933Z,12.83
2022-11-20T00:34:00.931Z,12.23
2022-11-20T00:35:01.225Z,10.97
2022-11-20T00:36:02.208Z,11.47
2022-11-20T00:37:01.215Z,13.23
2022-11-20T00:38:00.932Z,12.57
2022-11-20T00:39:01.324Z,10.97
2022-11-20T00:40:00.918Z,12.40
2022-11-20T00:41:04.218Z,12.97
2022-11-20T00:42:00.949Z,11.97
2022-11-20T00:43:01.222Z,13.47
2022-11-20T00:44:01.339Z,12.63
2022-11-20T00:45:01.228Z,12.90
2022-11-20T00:46:03.672Z,11.53
2022-11-20T00:47:01.231Z,12.67
2022-11-20T00:48:01.204Z,12.57
2022-11-20T00:49:00.918Z,14.00
2022-11-20T00:50:00.927Z,14.23
2022-11-20T00:51:01.610Z,14.17
2022-11-20T00:52:01.051Z,13.80
2022-11-20T00:53:00.930Z,14.77
2022-11-20T00:54:01.238Z,10.90
2022-11-20T00:55:01.225Z,11.83
2022-11-20T00:56:03.973Z,13.27
2022-11-20T00:57:00.912Z,11.83
2022-11-20T00:58:04.403Z,13.03
2022-11-20T00:59:01.499Z,16.73
2022-11-20T01:00:01.282Z,11.57
2022-11-20T01:01:01.567Z,13.83
2022-11-20T01:02:00.946Z,13.70
2022-11-20T01:03:01.197Z,12.47
2022-11-20T01:04:00.947Z,14.07
2022-11-20T01:05:00.925Z,12.53
2022-11-20T01:06:01.877Z,12.83
2022-11-20T01:07:01.296Z,13.40
2022-11-20T01:08:00.920Z,16.17
2022-11-20T01:09:05.208Z,13.77
2022-11-20T01:10:00.949Z,16.87
2022-11-20T01:11:02.249Z,12.93
2022-11-20T01:12:01.252Z,14.80
2022-11-20T01:13:00.918Z,12.93
2022-11-20T01:14:03.595Z,12.20
2022-11-20T01:15:00.963Z,15.37
2022-11-20T01:16:03.738Z,16.50
2022-11-20T01:17:01.209Z,13.50
2022-11-20T01:18:01.234Z,12.83
2022-11-20T01:19:04.459Z,14.57
2022-11-20T01:20:01.211Z,13.53
2022-11-20T01:21:02.770Z,13.37
2022-11-20T01:22:00.946Z,13.23
2022-11-20T01:23:00.928Z,13.20
2022-11-20T01:24:01.710Z,16.43
2022-11-20T01:25:01.103Z,17.97
2022-11-20T01:26:02.497Z,13.67
2022-11-20T01:27:01.238Z,14.10
2022-11-20T01:28:00.951Z,14.57
2022-11-20T01:29:02.867Z,13.60
2022-11-20T01:30:01.616Z,12.97
2022-11-20T01:31:01.256Z,12.50
2022-11-20T01:32:01.232Z,17.03
2022-11-20T01:33:01.239Z,19.30
2022-11-20T01:34:04.239Z,18.80
2022-11-20T01:35:01.230Z,15.20
2022-11-20T01:36:07.534Z,15.33
2022-11-20T01:37:00.928Z,17.07
2022-11-20T01:38:00.926Z,17.47
2022-11-20T01:39:05.531Z,20.27
2022-11-20T01:40:01.232Z,17.97
2022-11-20T01:41:01.277Z,20.73
2022-11-20T01:42:04.525Z,16.90
2022-11-20T01:43:13.618Z,18.00
2022-11-20T01:44:02.732Z,19.30
2022-11-20T01:45:01.563Z,15.80
2022-11-20T01:46:05.077Z,14.97
2022-11-20T01:47:04.958Z,18.43
2022-11-20T01:48:00.974Z,17.50
2022-11-20T01:49:04.275Z,15.33
2022-11-20T01:50:06.469Z,14.00
2022-11-20T01:51:02.926Z,12.93
2022-11-20T01:52:05.553Z,16.30
2022-11-20T01:53:05.302Z,11.23
2022-11-20T01:54:05.963Z,12.93
2022-11-20T01:55:07.036Z,11.93
2022-11-20T01:56:03.026Z,13.27
2022-11-20T01:57:01.990Z,15.73
2022-11-20T01:58:03.105Z,13.90
2022-11-20T01:59:04.127Z,14.70
2022-11-20T02:00:05.786Z,13.30
2022-11-20T02:01:01.429Z,12.67
2022-11-20T02:02:00.945Z,16.00
2022-11-20T02:03:06.722Z,10.97
2022-11-20T02:04:01.831Z,13.97
2022-11-20T02:05:09.594Z,15.77
2022-11-20T02:06:08.944Z,16.57
2022-11-20T02:07:04.243Z,13.07
2022-11-20T02:08:04.629Z,13.67
2022-11-20T02:09:01.461Z,14.17
2022-11-20T02:10:01.713Z,17.33
2022-11-20T02:11:01.227Z,14.40
2022-11-20T02:12:01.731Z,16.93
2022-11-20T02:13:01.507Z,15.37
2022-11-20T02:14:01.213Z,15.90
2022-11-20T02:15:01.550Z,14.10
2022-11-20T02:16:02.122Z,13.23
2022-11-20T02:17:01.311Z,12.77
2022-11-20T02:18:01.667Z,15.77
2022-11-20T02:19:04.195Z,19.97
2022-11-20T02:20:01.438Z,16.60
2022-11-20T02:21:07.409Z,14.47
2022-11-20T02:22:08.382Z,18.13
2022-11-20T02:23:08.816Z,20.57
2022-11-20T02:24:05.991Z,17.33
2022-11-20T02:25:04.035Z,17.40
2022-11-20T02:26:04.487Z,20.37
2022-11-20T02:27:04.917Z,17.83
2022-11-20T02:28:02.193Z,19.13
2022-11-20T02:29:02.704Z,17.73
2022-11-20T02:30:04.058Z,17.33
2022-11-20T02:31:01.447Z,16.47
2022-11-20T02:32:02.214Z,12.83
2022-11-20T02:33:01.224Z,14.30
2022-11-20T02:34:00.944Z,14.07
2022-11-20T02:35:08.158Z,13.20
2022-11-20T02:36:01.515Z,15.83
2022-11-20T02:37:01.622Z,16.97
2022-11-20T02:38:02.876Z,11.83
2022-11-20T02:39:01.676Z,15.40
2022-11-20T02:40:01.365Z,16.40
2022-11-20T02:41:01.236Z,13.73
2022-11-20T02:42:02.246Z,15.70
2022-11-20T02:43:00.956Z,15.87
2022-11-20T02:44:01.439Z,12.77
2022-11-20T02:45:00.922Z,16.17
2022-11-20T02:46:00.939Z,11.93
2022-11-20T02:47:01.428Z,17.87
2022-11-20T02:48:00.987Z,16.63
2022-11-20T02:49:02.929Z,12.80
2022-11-20T02:50:01.489Z,15.23
2022-11-20T02:51:01.072Z,13.03
2022-11-20T02:52:01.495Z,15.17
2022-11-20T02:53:01.136Z,16.33
2022-11-20T02:54:01.257Z,18.67
2022-11-20T02:55:00.990Z,12.93
2022-11-20T02:56:01.297Z,15.80
2022-11-20T02:57:01.237Z,18.73
2022-11-20T02:58:00.923Z,13.10
2022-11-20T02:59:01.225Z,15.33
2022-11-20T03:00:00.984Z,15.87
2022-11-20T03:01:01.309Z,14.80
2022-11-20T03:02:01.235Z,16.33
2022-11-20T03:03:00.945Z,13.50
2022-11-20T03:04:01.689Z,17.17
2022-11-20T03:05:01.349Z,16.97
2022-11-20T03:06:01.224Z,16.50
2022-11-20T03:07:01.893Z,15.37
2022-11-20T03:08:01.226Z,13.30
2022-11-20T03:09:01.102Z,14.97
2022-11-20T03:10:01.049Z,16.57
2022-11-20T03:11:04.451Z,19.10
2022-11-20T03:12:01.242Z,13.83
2022-11-20T03:13:01.233Z,16.10
2022-11-20T03:14:02.133Z,17.90
2022-11-20T03:15:01.189Z,12.10
2022-11-20T03:16:05.272Z,13.80
2022-11-20T03:17:01.228Z,16.33
2022-11-20T03:18:01.224Z,17.00
2022-11-20T03:19:01.278Z,16.23
2022-11-20T03:20:01.278Z,17.20
2022-11-20T03:21:01.339Z,15.23
2022-11-20T03:22:01.081Z,16.30
2022-11-20T03:23:01.998Z,17.23
2022-11-20T03:24:01.312Z,17.10
2022-11-20T03:25:00.921Z,15.43
2022-11-20T03:26:10.963Z,15.67
2022-11-20T03:27:00.923Z,17.10
2022-11-20T03:28:00.936Z,13.00
2022-11-20T03:29:03.037Z,13.50
2022-11-20T03:30:01.059Z,15.10
2022-11-20T03:31:05.327Z,14.63
2022-11-20T03:32:00.942Z,14.43
2022-11-20T03:33:00.948Z,14.40
2022-11-20T03:34:02.398Z,17.10
2022-11-20T03:35:01.235Z,19.23
2022-11-20T03:36:03.266Z,17.00
2022-11-20T03:37:01.093Z,17.33
2022-11-20T03:38:00.925Z,18.30
2022-11-20T03:39:01.600Z,17.10
2022-11-20T03:40:01.241Z,14.43
2022-11-20T03:41:02.743Z,18.67
2022-11-20T03:42:01.222Z,15.63
2022-11-20T03:43:00.907Z,13.80
2022-11-20T03:44:03.309Z,13.50
2022-11-20T03:45:01.214Z,15.27
2022-11-20T03:46:01.732Z,15.73
2022-11-20T03:47:00.939Z,15.07
2022-11-20T03:48:01.109Z,17.00
2022-11-20T03:49:02.029Z,13.90
2022-11-20T03:50:00.935Z,16.33
2022-11-20T03:51:10.216Z,15.70
2022-11-20T03:52:01.241Z,18.70
2022-11-20T03:53:01.215Z,16.97
2022-11-20T03:54:03.845Z,13.43
2022-11-20T03:55:00.978Z,16.90
2022-11-20T03:56:01.321Z,16.80
2022-11-20T03:57:00.935Z,14.27
2022-11-20T03:58:00.935Z,17.73
2022-11-20T03:59:01.743Z,17.67
2022-11-20T04:00:01.310Z,16.03
2022-11-20T04:01:06.805Z,17.27
2022-11-20T04:02:01.308Z,17.80
2022-11-20T04:03:02.506Z,17.63
2022-11-20T04:04:01.188Z,18.63
2022-11-20T04:05:00.956Z,16.00
2022-11-20T04:06:03.707Z,15.70
2022-11-20T04:07:00.995Z,17.07
2022-11-20T04:08:00.937Z,17.30
2022-11-20T04:09:01.246Z,16.33
2022-11-20T04:10:01.156Z,22.57
2022-11-20T04:11:10.032Z,17.33
2022-11-20T04:12:01.238Z,18.03
2022-11-20T04:13:01.213Z,17.73
2022-11-20T04:14:03.084Z,17.50
2022-11-20T04:15:01.353Z,18.67
2022-11-20T04:16:00.941Z,17.40
2022-11-20T04:17:00.922Z,19.67
2022-11-20T04:18:00.929Z,18.80
2022-11-20T04:19:04.253Z,17.27
2022-11-20T04:20:01.340Z,19.27
2022-11-20T04:21:01.533Z,19.30
2022-11-20T04:22:01.014Z,20.77
2022-11-20T04:23:00.938Z,18.37
2022-11-20T04:24:01.649Z,17.40
2022-11-20T04:25:01.253Z,16.67
2022-11-20T04:26:02.348Z,18.40
2022-11-20T04:27:01.228Z,20.20
2022-11-20T04:28:01.213Z,18.17
2022-11-20T04:29:01.565Z,22.27
2022-11-20T04:30:00.924Z,16.77
2022-11-20T04:31:04.426Z,20.03
2022-11-20T04:32:01.309Z,18.63
2022-11-20T04:33:00.936Z,21.33
2022-11-20T04:34:03.313Z,21.27
2022-11-20T04:35:01.211Z,18.23
2022-11-20T04:36:02.900Z,21.33
2022-11-20T04:37:01.380Z,17.40
2022-11-20T04:38:01.440Z,21.13
2022-11-20T04:39:03.702Z,20.47
2022-11-20T04:40:00.917Z,22.00
2022-11-20T04:41:03.195Z,22.87
2022-11-20T04:42:00.927Z,22.87
2022-11-20T04:43:01.130Z,21.20
2022-11-20T04:44:03.731Z,20.93
2022-11-20T04:45:01.257Z,20.63
2022-11-20T04:46:01.942Z,21.07
2022-11-20T04:47:00.937Z,21.40
2022-11-20T04:48:00.922Z,21.97
2022-11-20T04:49:01.383Z,21.37
2022-11-20T04:50:01.317Z,19.10
2022-11-20T04:51:03.529Z,23.83
2022-11-20T04:52:00.942Z,20.57
2022-11-20T04:53:00.934Z,21.47
2022-11-20T04:54:01.894Z,22.13
2022-11-20T04:55:00.945Z,21.43
2022-11-20T04:56:02.155Z,22.27
2022-11-20T04:57:01.232Z,20.97
2022-11-20T04:58:00.913Z,21.87
2022-11-20T04:59:01.721Z,17.10
2022-11-20T05:00:01.265Z,18.90
2022-11-20T05:01:01.927Z,20.77
2022-11-20T05:02:00.943Z,20.03
2022-11-20T05:03:00.972Z,17.43
2022-11-20T05:04:00.930Z,19.03
2022-11-20T05:05:01.235Z,17.20
2022-11-20T05:06:02.119Z,19.80
2022-11-20T05:07:01.296Z,21.57
2022-11-20T05:08:01.619Z,20.97
2022-11-20T05:09:00.927Z,20.53
2022-11-20T05:10:00.960Z,21.67
2022-11-20T05:11:02.334Z,23.43
2022-11-20T05:12:00.934Z,20.87
2022-11-20T05:13:01.226Z,19.93
2022-11-20T05:14:00.915Z,21.30
2022-11-20T05:15:01.234Z,18.33
2022-11-20T05:16:02.654Z,20.20
2022-11-20T05:17:00.973Z,22.80
2022-11-20T05:18:01.251Z,25.67
2022-11-20T05:19:01.240Z,18.87
2022-11-20T05:20:01.212Z,22.47
2022-11-20T05:21:01.404Z,26.50
2022-11-20T05:22:00.920Z,30.00
2022-11-20T05:23:01.207Z,32.47
2022-11-20T05:24:00.972Z,28.10
2022-11-20T05:25:01.273Z,28.37
2022-11-20T05:26:01.918Z,28.57
2022-11-20T05:27:01.227Z,26.17
2022-11-20T05:28:01.269Z,34.60
2022-11-20T05:29:01.216Z,39.80
2022-11-20T05:30:01.284Z,39.97
2022-11-20T05:31:05.930Z,53.03
2022-11-20T05:32:00.942Z,54.17
2022-11-20T05:33:00.948Z,56.83
2022-11-20T05:34:01.211Z,57.87
2022-11-20T05:35:01.313Z,53.97
2022-11-20T05:36:02.108Z,51.23
2022-11-20T05:37:00.969Z,40.93
2022-11-20T05:38:01.084Z,39.50
2022-11-20T05:39:01.709Z,31.70
2022-11-20T05:40:00.952Z,30.03
2022-11-20T05:41:04.902Z,25.20
2022-11-20T05:42:00.924Z,21.87
2022-11-20T05:43:01.950Z,25.07
2022-11-20T05:44:01.238Z,24.67
2022-11-20T05:45:03.071Z,24.10
2022-11-20T05:46:01.299Z,26.03
2022-11-20T05:47:00.927Z,26.17
2022-11-20T05:48:01.745Z,24.00
2022-11-20T05:49:01.596Z,23.27
2022-11-20T05:50:01.368Z,21.40
2022-11-20T05:51:03.580Z,28.07
2022-11-20T05:52:00.966Z,21.77
2022-11-20T05:53:01.437Z,23.77
2022-11-20T05:54:01.226Z,27.60
2022-11-20T05:55:00.936Z,23.67
2022-11-20T05:56:02.712Z,20.30
2022-11-20T05:57:01.254Z,23.73
2022-11-20T05:58:00.917Z,21.70
2022-11-20T05:59:01.240Z,24.60
2022-11-20T06:00:01.487Z,23.60
2022-11-20T06:01:05.283Z,18.07
2022-11-20T06:02:00.913Z,19.53
2022-11-20T06:03:01.365Z,20.63
2022-11-20T06:04:00.914Z,22.33
2022-11-20T06:05:01.319Z,19.97
2022-11-20T06:06:02.109Z,21.00
2022-11-20T06:07:01.308Z,19.60
2022-11-20T06:08:01.352Z,19.13
2022-11-20T06:09:00.951Z,21.40
2022-11-20T06:10:00.930Z,24.23
2022-11-20T06:11:03.938Z,21.80
2022-11-20T06:12:01.291Z,19.53
2022-11-20T06:13:01.240Z,20.93
2022-11-20T06:14:01.230Z,19.93
2022-11-20T06:15:01.209Z,20.20
2022-11-20T06:16:01.479Z,18.07
2022-11-20T06:17:01.418Z,19.67
2022-11-20T06:18:01.260Z,25.63
2022-11-20T06:19:01.259Z,23.60
2022-11-20T06:20:01.418Z,20.67
2022-11-20T06:21:02.849Z,25.20
2022-11-20T06:22:01.182Z,23.97
2022-11-20T06:23:00.937Z,18.57
2022-11-20T06:24:00.930Z,25.40
2022-11-20T06:25:00.942Z,25.27
2022-11-20T06:26:03.447Z,23.20
2022-11-20T06:27:01.223Z,22.40
2022-11-20T06:28:00.937Z,22.33
2022-11-20T06:29:01.027Z,24.40
2022-11-20T06:30:01.231Z,25.27
2022-11-20T06:31:01.607Z,22.83
2022-11-20T06:32:01.277Z,21.63
2022-11-20T06:33:02.027Z,23.47
2022-11-20T06:34:01.594Z,23.17
2022-11-20T06:35:00.938Z,18.70
2022-11-20T06:36:05.856Z,22.30
2022-11-20T06:37:01.275Z,22.77
2022-11-20T06:38:00.926Z,19.33
2022-11-20T06:39:01.455Z,17.77
2022-11-20T06:40:00.931Z,21.73
2022-11-20T06:41:01.267Z,21.57
2022-11-20T06:42:01.605Z,23.23
2022-11-20T06:43:00.945Z,19.67
2022-11-20T06:44:01.270Z,20.83
2022-11-20T06:45:00.942Z,25.03
2022-11-20T06:46:00.973Z,22.37
2022-11-20T06:47:00.930Z,21.80
2022-11-20T06:48:00.911Z,22.87
2022-11-20T06:49:01.227Z,24.07
2022-11-20T06:50:01.335Z,24.07
2022-11-20T06:51:03.291Z,25.97
2022-11-20T06:52:01.237Z,23.90
2022-11-20T06:53:02.354Z,24.33
2022-11-20T06:54:01.210Z,25.03
2022-11-20T06:55:01.127Z,21.10
2022-11-20T06:56:01.246Z,24.47
2022-11-20T06:57:01.238Z,21.90
2022-11-20T06:58:00.933Z,21.90
2022-11-20T06:59:03.952Z,28.63
2022-11-20T07:00:00.955Z,26.97
2022-11-20T07:01:03.507Z,20.83
2022-11-20T07:02:01.270Z,21.60
2022-11-20T07:03:02.993Z,22.70
2022-11-20T07:04:01.255Z,24.47
2022-11-20T07:05:01.224Z,22.23
2022-11-20T07:06:02.445Z,19.77
2022-11-20T07:07:00.968Z,21.90
2022-11-20T07:08:01.942Z,25.00
2022-11-20T07:09:00.933Z,27.60
2022-11-20T07:10:00.949Z,25.77
2022-11-20T07:11:03.347Z,22.00
2022-11-20T07:12:01.214Z,24.70
2022-11-20T07:13:01.410Z,24.20
2022-11-20T07:14:01.277Z,22.83
2022-11-20T07:15:00.931Z,22.27
2022-11-20T07:16:02.853Z,24.07
2022-11-20T07:17:01.203Z,24.07
2022-11-20T07:18:01.579Z,23.80
2022-11-20T07:19:00.932Z,27.03
2022-11-20T07:20:01.220Z,24.97
2022-11-20T07:21:02.004Z,22.70
2022-11-20T07:22:00.924Z,23.07
2022-11-20T07:23:01.362Z,21.23
2022-11-20T07:24:00.925Z,25.10
2022-11-20T07:25:02.086Z,25.30
2022-11-20T07:26:03.988Z,21.90
2022-11-20T07:27:01.247Z,22.53
2022-11-20T07:28:01.590Z,25.43
2022-11-20T07:29:00.970Z,25.47
2022-11-20T07:30:01.052Z,25.40
2022-11-20T07:31:01.326Z,24.03
2022-11-20T07:32:01.080Z,21.03
2022-11-20T07:33:01.242Z,25.37
2022-11-20T07:34:01.070Z,24.80
2022-11-20T07:35:00.962Z,25.00
2022-11-20T07:36:01.565Z,27.97
2022-11-20T07:37:04.823Z,26.17
2022-11-20T07:38:01.211Z,22.07
2022-11-20T07:39:01.524Z,25.93
2022-11-20T07:40:00.949Z,26.50
2022-11-20T07:41:00.942Z,23.53
2022-11-20T07:42:00.911Z,26.07
2022-11-20T07:43:01.258Z,24.23
2022-11-20T07:44:01.402Z,23.87
2022-11-20T07:45:01.228Z,21.33
2022-11-20T07:46:01.237Z,23.13
2022-11-20T07:47:01.905Z,23.20
2022-11-20T07:48:00.949Z,23.63
2022-11-20T07:49:00.924Z,24.97
2022-11-20T07:50:01.211Z,22.70
2022-11-20T07:51:01.044Z,20.93
2022-11-20T07:52:04.721Z,24.20
2022-11-20T07:53:02.392Z,25.50
2022-11-20T07:54:01.018Z,24.87
2022-11-20T07:55:01.215Z,25.40
2022-11-20T07:56:01.831Z,24.17
2022-11-20T07:57:00.922Z,26.00
2022-11-20T07:58:01.235Z,24.60
2022-11-20T07:59:01.226Z,25.83
2022-11-20T08:00:00.933Z,29.90
2022-11-20T08:01:05.906Z,24.67
2022-11-20T08:02:00.901Z,22.73
2022-11-20T08:03:03.443Z,25.50
2022-11-20T08:04:00.913Z,21.53
2022-11-20T08:05:00.946Z,21.20
2022-11-20T08:06:02.045Z,21.27
2022-11-20T08:07:01.006Z,26.00
2022-11-20T08:08:00.921Z,23.27
2022-11-20T08:09:01.236Z,23.03
2022-11-20T08:10:01.287Z,21.90
2022-11-20T08:11:01.286Z,21.60
2022-11-20T08:12:01.519Z,25.77
2022-11-20T08:13:00.903Z,23.27
2022-11-20T08:14:00.970Z,21.77
2022-11-20T08:15:00.985Z,22.07
2022-11-20T08:16:01.350Z,20.60
2022-11-20T08:17:00.929Z,26.60
2022-11-20T08:18:28.917Z,23.90
2022-11-20T08:19:01.207Z,21.90
2022-11-20T08:20:01.232Z,21.43
2022-11-20T08:21:03.153Z,22.50
2022-11-20T08:22:01.244Z,20.73
2022-11-20T08:23:02.468Z,20.80
2022-11-20T08:24:00.929Z,22.93
2022-11-20T08:25:01.101Z,25.07
2022-11-20T08:26:00.924Z,21.23
2022-11-20T08:27:00.921Z,26.70
2022-11-20T08:28:10.295Z,24.97
2022-11-20T08:29:01.251Z,24.97
2022-11-20T08:30:01.221Z,22.97
2022-11-20T08:31:02.832Z,21.30
2022-11-20T08:32:01.236Z,24.57
2022-11-20T08:33:03.480Z,22.97
2022-11-20T08:34:04.925Z,23.77
2022-11-20T08:35:01.231Z,19.63
2022-11-20T08:36:02.052Z,22.00
2022-11-20T08:37:02.044Z,23.63
2022-11-20T08:38:01.306Z,27.67
2022-11-20T08:39:01.270Z,27.00
2022-11-20T08:40:01.223Z,21.93
2022-11-20T08:41:03.543Z,24.47
2022-11-20T08:42:00.911Z,22.27
2022-11-20T08:43:01.225Z,23.10
2022-11-20T08:44:03.111Z,23.30
2022-11-20T08:45:01.169Z,23.90
2022-11-20T08:46:00.947Z,24.77
2022-11-20T08:47:01.438Z,25.47
2022-11-20T08:48:02.012Z,22.10
2022-11-20T08:49:01.053Z,25.17
2022-11-20T08:50:00.932Z,22.90
2022-11-20T08:51:00.968Z,28.20
2022-11-20T08:52:00.947Z,22.57
2022-11-20T08:53:02.867Z,26.30
2022-11-20T08:54:01.461Z,24.53
2022-11-20T08:55:00.949Z,23.37
2022-11-20T08:56:01.681Z,25.20
2022-11-20T08:57:00.925Z,25.60
2022-11-20T08:58:04.435Z,22.87
2022-11-20T08:59:27.063Z,21.43
2022-11-20T09:00:06.524Z,23.03
2022-11-20T09:01:01.586Z,23.93
2022-11-20T09:02:01.241Z,24.60
2022-11-20T09:03:01.940Z,25.40
2022-11-20T09:04:00.946Z,25.10
2022-11-20T09:05:01.229Z,24.47
2022-11-20T09:06:03.703Z,22.90
2022-11-20T09:07:01.465Z,25.43
2022-11-20T09:08:01.246Z,23.33
2022-11-20T09:09:06.331Z,28.20
2022-11-20T09:10:22.633Z,28.30
2022-11-20T09:11:01.238Z,21.13
2022-11-20T09:12:00.911Z,22.33
2022-11-20T09:13:01.354Z,22.70
2022-11-20T09:14:01.237Z,22.57
2022-11-20T09:15:00.906Z,23.63
2022-11-20T09:16:02.923Z,21.50
2022-11-20T09:17:01.284Z,21.53
2022-11-20T09:18:03.110Z,20.70
2022-11-20T09:19:20.663Z,23.37
2022-11-20T09:20:00.935Z,24.17
2022-11-20T09:21:03.950Z,21.70
2022-11-20T09:22:00.911Z,21.87
2022-11-20T09:23:01.233Z,23.33
2022-11-20T09:24:00.942Z,19.50
2022-11-20T09:25:00.931Z,21.87
2022-11-20T09:26:03.457Z,24.00
2022-11-20T09:27:03.903Z,21.93
2022-11-20T09:28:01.227Z,21.60
2022-11-20T09:29:01.081Z,22.80
2022-11-20T09:30:00.941Z,20.93
2022-11-20T09:31:04.680Z,20.73
2022-11-20T09:32:01.237Z,19.50
2022-11-20T09:33:01.329Z,20.20
2022-11-20T09:34:01.233Z,24.03
2022-11-20T09:36:01.429Z,22.70
2022-11-20T09:37:04.518Z,19.20
2022-11-20T09:38:06.084Z,23.70
2022-11-20T09:39:01.090Z,22.10
2022-11-20T09:40:01.227Z,17.93
2022-11-20T09:41:05.174Z,25.87
2022-11-20T09:42:20.396Z,25.70
2022-11-20T09:43:07.317Z,21.57
2022-11-20T09:44:13.475Z,22.57
2022-11-20T09:45:15.704Z,22.70
2022-11-20T09:46:08.063Z,19.87
2022-11-20T09:47:08.295Z,22.47
2022-11-20T09:48:16.563Z,20.30
2022-11-20T09:49:20.487Z,23.70
2022-11-20T09:50:17.334Z,22.83
2022-11-20T09:51:08.878Z,22.53
2022-11-20T09:52:12.966Z,20.60
2022-11-20T09:53:13.714Z,19.10
2022-11-20T09:54:15.119Z,18.27
2022-11-20T09:55:03.904Z,20.93
2022-11-20T09:56:03.052Z,23.33
2022-11-20T09:57:11.706Z,26.13
2022-11-20T09:58:01.243Z,22.07
2022-11-20T09:59:06.676Z,21.10
2022-11-20T10:00:04.249Z,20.17
2022-11-20T10:01:09.760Z,20.80
2022-11-20T10:02:11.831Z,24.10
2022-11-20T10:03:06.331Z,16.80
2022-11-20T10:04:04.824Z,22.57
2022-11-20T10:05:06.418Z,18.33
2022-11-20T10:06:03.858Z,18.10
2022-11-20T10:07:31.884Z,18.17
2022-11-20T10:08:10.857Z,19.20
2022-11-20T10:09:16.101Z,19.93
2022-11-20T10:10:01.315Z,18.73
2022-11-20T10:11:09.488Z,17.10
2022-11-20T10:12:15.686Z,19.73
2022-11-20T10:13:17.494Z,17.97
2022-11-20T10:14:12.464Z,18.70
2022-11-20T10:15:16.513Z,22.07
2022-11-20T10:16:15.007Z,21.57
2022-11-20T10:17:11.995Z,22.13
2022-11-20T10:18:16.811Z,20.57
2022-11-20T10:19:14.697Z,19.33
2022-11-20T10:20:16.351Z,18.40
2022-11-20T10:21:12.323Z,24.43
2022-11-20T10:22:11.716Z,22.40
2022-11-20T10:23:25.431Z,20.00
2022-11-20T10:24:20.393Z,19.70
2022-11-20T10:25:11.316Z,16.33
2022-11-20T10:26:03.617Z,19.07
2022-11-20T10:27:09.234Z,21.13
2022-11-20T10:28:18.234Z,20.67
2022-11-20T10:29:11.417Z,17.40
2022-11-20T10:30:08.139Z,18.77
2022-11-20T10:31:04.605Z,18.43
2022-11-20T10:32:04.466Z,19.23
2022-11-20T10:33:06.808Z,16.63
2022-11-20T10:34:12.164Z,17.43
2022-11-20T10:35:10.091Z,17.00
2022-11-20T10:36:08.207Z,14.90
2022-11-20T10:37:06.950Z,17.50
2022-11-20T10:38:05.686Z,17.70
2022-11-20T10:39:06.942Z,17.93
2022-11-20T10:40:06.007Z,17.97
2022-11-20T10:41:03.176Z,15.67
2022-11-20T10:42:01.517Z,19.07
2022-11-20T10:43:03.353Z,20.50
2022-11-20T10:44:05.126Z,16.77
2022-11-20T10:45:15.806Z,16.43
2022-11-20T10:46:07.068Z,19.43
2022-11-20T10:47:01.397Z,17.53
2022-11-20T10:48:12.721Z,21.20
2022-11-20T10:49:00.931Z,17.67
2022-11-20T10:50:05.567Z,20.53
2022-11-20T10:51:15.854Z,17.40
2022-11-20T10:52:12.850Z,17.93
2022-11-20T10:53:09.244Z,16.70
2022-11-20T10:54:17.867Z,16.80
2022-11-20T10:55:18.374Z,18.80
2022-11-20T10:56:07.809Z,17.60
2022-11-20T10:57:13.478Z,18.20
2022-11-20T10:58:10.452Z,18.67
2022-11-20T10:59:20.697Z,20.13
2022-11-20T11:00:05.591Z,19.33
2022-11-20T11:01:04.805Z,16.50
2022-11-20T11:02:03.323Z,15.40
2022-11-20T11:03:01.378Z,17.63
2022-11-20T11:04:01.554Z,14.53
2022-11-20T11:05:14.263Z,17.07
2022-11-20T11:06:08.240Z,17.83
2022-11-20T11:07:10.486Z,17.00
2022-11-20T11:08:03.436Z,15.50
2022-11-20T11:09:09.119Z,16.40
2022-11-20T11:10:01.328Z,15.83
2022-11-20T11:11:12.008Z,17.57
2022-11-20T11:12:06.799Z,16.63
2022-11-20T11:13:00.930Z,15.23
2022-11-20T11:14:09.943Z,15.33
2022-11-20T11:15:01.257Z,14.93
2022-11-20T11:16:03.154Z,14.93
2022-11-20T11:17:01.223Z,17.67
2022-11-20T11:18:01.256Z,14.00
2022-11-20T11:19:05.376Z,15.00
2022-11-20T11:20:04.995Z,16.17
2022-11-20T11:21:03.710Z,16.50
2022-11-20T11:22:11.511Z,15.80
2022-11-20T11:23:01.237Z,17.43
2022-11-20T11:24:19.862Z,14.17
2022-11-20T11:25:01.476Z,17.27
2022-11-20T11:26:03.582Z,14.23
2022-11-20T11:27:03.646Z,15.23
2022-11-20T11:28:03.485Z,17.17
2022-11-20T11:29:04.365Z,16.53
2022-11-20T11:30:13.277Z,16.33
2022-11-20T11:31:00.942Z,17.60
2022-11-20T11:32:06.657Z,17.27
2022-11-20T11:33:05.595Z,16.47
2022-11-20T11:34:04.591Z,15.83
2022-11-20T11:35:03.520Z,15.30
2022-11-20T11:36:03.694Z,17.87
2022-11-20T11:37:02.700Z,16.40
2022-11-20T11:38:06.222Z,13.37
2022-11-20T11:39:02.709Z,16.63
2022-11-20T11:40:23.467Z,17.13
2022-11-20T11:41:02.659Z,14.83
2022-11-20T11:42:01.902Z,12.60
2022-11-20T11:43:04.574Z,15.17
2022-11-20T11:44:13.837Z,14.10
2022-11-20T11:45:01.232Z,13.53
2022-11-20T11:46:01.122Z,14.20
2022-11-20T11:47:03.212Z,12.73
2022-11-20T11:48:03.922Z,12.83
2022-11-20T11:49:12.087Z,13.03
2022-11-20T11:50:01.720Z,14.43
2022-11-20T11:51:00.957Z,10.53
2022-11-20T11:52:09.031Z,12.10
2022-11-20T11:53:12.644Z,12.63
2022-11-20T11:54:05.457Z,13.53
2022-11-20T11:55:10.214Z,11.00
2022-11-20T11:56:08.907Z,10.17
2022-11-20T11:57:05.936Z,14.87
2022-11-20T11:58:11.408Z,10.27
2022-11-20T11:59:06.895Z,11.83
2022-11-20T12:00:04.827Z,12.53
2022-11-20T12:01:10.497Z,13.17
2022-11-20T12:02:12.467Z,12.40
2022-11-20T12:03:09.310Z,14.77
2022-11-20T12:04:06.097Z,11.40
2022-11-20T12:05:12.743Z,10.60
2022-11-20T12:06:09.165Z,12.00
2022-11-20T12:07:39.276Z,11.93
2022-11-20T12:08:12.134Z,12.03
2022-11-20T12:09:04.743Z,12.97
2022-11-20T12:10:02.521Z,11.53
2022-11-20T12:11:11.736Z,11.53
2022-11-20T12:12:10.580Z,11.27
2022-11-20T12:13:14.295Z,11.67
2022-11-20T12:14:10.315Z,12.80
2022-11-20T12:15:02.638Z,9.73
2022-11-20T12:16:02.792Z,12.03
2022-11-20T12:17:02.322Z,11.03
2022-11-20T12:18:01.214Z,14.67
2022-11-20T12:19:01.360Z,16.37
2022-11-20T12:20:00.930Z,11.80
2022-11-20T12:21:15.893Z,12.77
2022-11-20T12:22:13.808Z,12.20
2022-11-20T12:23:09.865Z,13.93
2022-11-20T12:24:17.065Z,9.97
2022-11-20T12:25:07.986Z,12.63
2022-11-20T12:26:10.496Z,13.43
2022-11-20T12:27:14.345Z,9.27
2022-11-20T12:28:20.402Z,10.80
2022-11-20T12:29:09.331Z,9.63
2022-11-20T12:30:07.443Z,12.03
2022-11-20T12:31:18.454Z,10.90
2022-11-20T12:32:16.976Z,12.10
2022-11-20T12:33:15.749Z,10.47
2022-11-20T12:34:10.767Z,12.70
2022-11-20T12:35:11.722Z,13.57
2022-11-20T12:36:13.029Z,10.80
2022-11-20T12:37:08.908Z,13.30
2022-11-20T12:38:18.463Z,11.30
2022-11-20T12:39:12.106Z,13.87
2022-11-20T12:40:20.416Z,12.53
2022-11-20T12:41:12.834Z,14.07
2022-11-20T12:42:19.097Z,11.33
2022-11-20T12:43:11.973Z,11.83
2022-11-20T12:44:16.501Z,11.00
2022-11-20T12:45:10.413Z,11.70
2022-11-20T12:46:09.143Z,11.47
2022-11-20T12:47:17.356Z,11.13
2022-11-20T12:48:20.407Z,10.83
2022-11-20T12:49:18.321Z,8.83
2022-11-20T12:50:14.669Z,8.87
2022-11-20T12:51:19.154Z,10.70
2022-11-20T12:52:13.631Z,11.10
2022-11-20T12:53:07.284Z,9.60
2022-11-20T12:54:14.525Z,10.00